createdAt,value
2023-01-17T00:02:01.337Z,1.63
2023-01-17T00:04:47.441Z,1.97
2023-01-17T00:07:35.082Z,2.77
2023-01-17T00:10:07.492Z,2.07
2023-01-17T00:12:36.725Z,2.50
2023-01-17T00:15:08.414Z,2.60
2023-01-17T00:17:36.700Z,3.33
2023-01-17T00:20:23.206Z,2.07
2023-01-17T00:23:08.901Z,2.67
2023-01-17T00:25:57.466Z,2.57
2023-01-17T00:28:25.659Z,2.77
2023-01-17T00:30:54.313Z,3.17
2023-01-17T00:33:22.450Z,2.80
2023-01-17T00:35:50.665Z,3.67
2023-01-17T00:38:19.526Z,3.40
2023-01-17T00:40:47.826Z,2.93
2023-01-17T00:43:35.213Z,3.77
2023-01-17T00:46:22.824Z,3.57
2023-01-17T00:49:09.045Z,4.53
2023-01-17T00:51:55.797Z,4.20
2023-01-17T00:54:41.412Z,3.97
2023-01-17T00:57:27.213Z,3.60
2023-01-17T01:00:12.802Z,4.07
2023-01-17T01:03:00.273Z,4.33
2023-01-17T01:05:46.291Z,4.07
2023-01-17T01:08:39.408Z,4.87
2023-01-17T01:11:27.003Z,4.63
2023-01-17T01:14:13.182Z,4.20
2023-01-17T01:16:58.985Z,4.30
2023-01-17T01:19:46.253Z,4.73
2023-01-17T01:22:32.394Z,5.53
2023-01-17T01:25:18.790Z,4.93
2023-01-17T01:28:04.387Z,4.77
2023-01-17T01:30:50.469Z,4.60
2023-01-17T01:33:20.204Z,4.77
2023-01-17T01:35:51.856Z,5.03
2023-01-17T01:38:21.154Z,4.80
2023-01-17T01:40:52.296Z,5.17
2023-01-17T01:43:23.377Z,5.67
2023-01-17T01:45:57.461Z,4.97
2023-01-17T01:48:36.715Z,5.30
2023-01-17T01:51:10.966Z,5.23
2023-01-17T01:53:46.617Z,4.93
2023-01-17T01:56:16.510Z,5.30
2023-01-17T01:58:50.164Z,5.07
2023-01-17T02:01:19.688Z,6.00
2023-01-17T02:03:49.126Z,5.40
2023-01-17T02:06:29.991Z,5.33
2023-01-17T02:09:01.376Z,5.10
2023-01-17T02:11:29.763Z,4.60
2023-01-17T02:13:58.103Z,5.20
2023-01-17T02:16:43.080Z,4.67
2023-01-17T02:19:38.469Z,4.67
2023-01-17T02:22:27.009Z,5.00
2023-01-17T02:25:24.006Z,5.47
2023-01-17T02:28:06.054Z,5.13
2023-01-17T02:30:38.313Z,5.47
2023-01-17T02:33:26.295Z,5.27
2023-01-17T02:36:07.082Z,5.23
2023-01-17T02:38:45.052Z,5.50
2023-01-17T02:41:20.313Z,5.63
2023-01-17T02:43:51.444Z,6.17
2023-01-17T02:46:21.282Z,5.10
2023-01-17T02:48:51.471Z,6.93
2023-01-17T02:51:48.387Z,5.53
2023-01-17T02:54:35.561Z,5.17
2023-01-17T02:57:20.843Z,5.77
2023-01-17T02:59:56.366Z,6.47
2023-01-17T03:02:36.151Z,6.30
2023-01-17T03:05:10.316Z,5.97
2023-01-17T03:07:41.781Z,6.20
2023-01-17T03:10:12.722Z,6.03
2023-01-17T03:12:41.742Z,5.97
2023-01-17T03:15:13.001Z,5.93
2023-01-17T03:17:47.758Z,6.37
2023-01-17T03:20:16.623Z,6.00
2023-01-17T03:22:44.888Z,6.07
2023-01-17T03:25:13.376Z,6.37
2023-01-17T03:27:42.501Z,6.23
2023-01-17T03:30:11.903Z,6.00
2023-01-17T03:32:40.316Z,5.97
2023-01-17T03:35:10.955Z,6.63
2023-01-17T03:37:39.314Z,6.10
2023-01-17T03:40:08.745Z,6.33
2023-01-17T03:42:37.162Z,6.40
2023-01-17T03:45:06.335Z,6.97
2023-01-17T03:47:36.288Z,6.17
2023-01-17T03:50:04.879Z,6.70
2023-01-17T03:52:34.672Z,6.60
2023-01-17T03:55:03.572Z,6.57
2023-01-17T03:57:31.968Z,7.30
2023-01-17T04:00:00.463Z,7.80
2023-01-17T04:02:28.889Z,8.50
2023-01-17T04:04:57.239Z,9.07
2023-01-17T04:07:25.705Z,9.43
2023-01-17T04:09:55.479Z,10.33
2023-01-17T04:12:23.908Z,9.27
2023-01-17T04:14:52.512Z,9.13
2023-01-17T04:17:21.663Z,10.07
2023-01-17T04:19:50.064Z,9.93
2023-01-17T04:22:18.445Z,10.47
2023-01-17T04:24:46.848Z,10.27
2023-01-17T04:27:16.536Z,11.97
2023-01-17T04:29:46.729Z,10.87
2023-01-17T04:32:15.886Z,11.03
2023-01-17T04:34:44.300Z,11.60
2023-01-17T04:37:12.706Z,11.33
2023-01-17T04:39:41.063Z,11.27
2023-01-17T04:42:09.455Z,12.00
2023-01-17T04:44:40.302Z,11.87
2023-01-17T04:47:08.685Z,12.83
2023-01-17T04:49:37.075Z,12.40
2023-01-17T04:52:05.807Z,12.70
2023-01-17T04:54:34.139Z,13.60
2023-01-17T04:57:02.571Z,13.67
2023-01-17T04:59:30.874Z,11.97
2023-01-17T05:02:00.707Z,12.03
2023-01-17T05:04:29.077Z,13.13
2023-01-17T05:06:57.408Z,13.37
2023-01-17T05:09:25.834Z,13.47
2023-01-17T05:11:55.716Z,13.93
2023-01-17T05:14:26.326Z,13.07
2023-01-17T05:16:54.922Z,13.70
2023-01-17T05:19:25.255Z,12.87
2023-01-17T05:21:53.703Z,14.10
2023-01-17T05:24:22.315Z,14.20
2023-01-17T05:26:54.710Z,13.53
2023-01-17T05:29:23.276Z,15.13
2023-01-17T05:31:51.678Z,15.07
2023-01-17T05:34:20.031Z,14.80
2023-01-17T05:36:49.805Z,14.90
2023-01-17T05:39:18.154Z,27.97
2023-01-17T05:41:46.523Z,35.90
2023-01-17T05:44:15.652Z,25.63
2023-01-17T05:46:44.179Z,59.43
2023-01-17T05:49:12.558Z,24.37
2023-01-17T05:51:40.944Z,24.07
2023-01-17T05:54:10.798Z,30.60
2023-01-17T05:56:39.167Z,19.87
2023-01-17T05:59:07.507Z,17.50
2023-01-17T06:01:36.055Z,16.67
2023-01-17T06:04:04.541Z,18.60
2023-01-17T06:06:32.902Z,22.10
2023-01-17T06:09:01.328Z,33.53
2023-01-17T06:11:31.996Z,36.37
2023-01-17T06:14:00.368Z,21.17
2023-01-17T06:16:28.777Z,26.47
2023-01-17T06:18:57.148Z,37.90
2023-01-17T06:21:25.691Z,27.80
2023-01-17T06:23:56.449Z,19.63
2023-01-17T06:26:24.788Z,21.47
2023-01-17T06:28:54.827Z,24.27
2023-01-17T06:31:23.256Z,29.80
2023-01-17T06:33:51.585Z,26.23
2023-01-17T06:36:20.156Z,28.63
2023-01-17T06:38:51.516Z,23.40
2023-01-17T06:41:19.902Z,20.27
2023-01-17T06:43:48.310Z,22.97
2023-01-17T06:46:18.059Z,33.03
2023-01-17T06:48:48.337Z,29.47
2023-01-17T06:51:17.364Z,27.33
2023-01-17T06:53:45.810Z,28.13
2023-01-17T06:56:14.118Z,23.07
2023-01-17T06:58:42.545Z,23.17
2023-01-17T07:01:12.656Z,25.30
2023-01-17T07:03:42.825Z,25.27
2023-01-17T07:06:11.508Z,23.63
2023-01-17T07:08:39.848Z,23.37
2023-01-17T07:11:09.327Z,22.40
2023-01-17T07:13:38.623Z,22.23
2023-01-17T07:16:07.785Z,21.60
2023-01-17T07:18:36.325Z,22.80
2023-01-17T07:21:06.421Z,25.40
2023-01-17T07:23:34.944Z,25.53
2023-01-17T07:26:03.455Z,24.70
2023-01-17T07:28:31.846Z,24.77
2023-01-17T07:31:00.374Z,25.87
2023-01-17T07:33:28.727Z,25.87
2023-01-17T07:35:57.068Z,23.90
2023-01-17T07:38:26.837Z,25.23
2023-01-17T07:40:59.942Z,28.00
2023-01-17T07:43:28.525Z,23.90
2023-01-17T07:45:56.972Z,27.73
2023-01-17T07:48:26.690Z,31.20
2023-01-17T07:50:56.717Z,32.97
2023-01-17T07:53:27.403Z,33.57
2023-01-17T07:55:56.124Z,33.97
2023-01-17T07:58:24.463Z,41.17
2023-01-17T08:00:52.906Z,40.00
2023-01-17T08:03:21.603Z,40.73
2023-01-17T08:05:56.232Z,42.47
2023-01-17T08:08:26.435Z,46.17
2023-01-17T08:10:54.969Z,42.07
2023-01-17T08:13:23.750Z,38.10
2023-01-17T08:15:54.520Z,36.00
2023-01-17T08:18:22.973Z,42.13
2023-01-17T08:20:51.339Z,36.03
2023-01-17T08:23:19.634Z,37.30
2023-01-17T08:25:49.389Z,38.57
2023-01-17T08:28:17.908Z,39.07
2023-01-17T08:30:46.280Z,39.07
2023-01-17T08:33:14.604Z,40.70
2023-01-17T08:35:52.704Z,38.93
2023-01-17T08:38:21.096Z,39.47
2023-01-17T08:40:50.925Z,39.57
2023-01-17T08:43:19.857Z,40.27
2023-01-17T08:45:48.957Z,41.30
2023-01-17T08:48:17.385Z,37.57
2023-01-17T08:50:46.324Z,37.93
2023-01-17T08:53:14.667Z,38.60
2023-01-17T08:55:43.083Z,42.67
2023-01-17T08:58:13.022Z,39.73
2023-01-17T09:00:41.445Z,39.50
2023-01-17T09:03:14.505Z,36.63
2023-01-17T09:05:42.944Z,38.03
2023-01-17T09:08:11.354Z,33.30
2023-01-17T09:10:39.639Z,31.60
2023-01-17T09:13:08.683Z,29.93
2023-01-17T09:15:38.408Z,31.50
2023-01-17T09:18:44.166Z,30.30
2023-01-17T09:21:13.386Z,31.23
2023-01-17T09:23:42.456Z,29.23
2023-01-17T09:26:19.296Z,29.40
2023-01-17T09:28:47.729Z,29.43
2023-01-17T09:31:18.060Z,28.73
2023-01-17T09:33:46.410Z,26.23
2023-01-17T09:36:14.815Z,26.30
2023-01-17T09:38:43.502Z,25.37
2023-01-17T09:41:28.578Z,26.53
2023-01-17T09:44:03.960Z,26.57
2023-01-17T09:46:38.787Z,25.17
2023-01-17T09:49:10.167Z,25.53
2023-01-17T09:51:38.723Z,24.60
2023-01-17T09:54:07.320Z,24.23
2023-01-17T09:56:40.736Z,23.97
2023-01-17T09:59:33.201Z,24.30
2023-01-17T10:02:17.152Z,22.53
2023-01-17T10:05:03.420Z,22.83
2023-01-17T10:07:40.767Z,21.77
2023-01-17T10:10:23.139Z,21.27
2023-01-17T10:12:57.484Z,20.53
2023-01-17T10:15:58.971Z,18.83
2023-01-17T10:18:59.057Z,19.00
2023-01-17T10:21:41.431Z,17.23
2023-01-17T10:24:23.646Z,17.53
2023-01-17T10:26:57.342Z,17.17
2023-01-17T10:29:30.102Z,15.87
2023-01-17T10:32:01.626Z,16.10
2023-01-17T10:34:37.450Z,15.10
2023-01-17T10:37:17.319Z,12.47
2023-01-17T10:39:48.748Z,13.30
2023-01-17T10:42:23.323Z,12.30
2023-01-17T10:44:56.589Z,10.97
2023-01-17T10:47:27.994Z,10.30
2023-01-17T10:49:59.553Z,10.07
2023-01-17T10:52:38.236Z,9.30
2023-01-17T10:55:22.013Z,8.30
2023-01-17T10:57:51.582Z,7.47
2023-01-17T11:00:40.023Z,7.60
2023-01-17T11:03:10.934Z,7.77
2023-01-17T11:05:42.943Z,7.80
2023-01-17T11:08:13.531Z,7.37
2023-01-17T11:10:44.968Z,7.33
2023-01-17T11:13:26.160Z,7.77
2023-01-17T11:15:57.915Z,8.13
2023-01-17T11:18:29.092Z,7.73
2023-01-17T11:21:12.285Z,7.87
2023-01-17T11:23:43.122Z,8.13
2023-01-17T11:26:21.522Z,7.40
2023-01-17T11:28:51.889Z,8.07
2023-01-17T11:31:30.712Z,7.33
2023-01-17T11:34:15.340Z,7.17
2023-01-17T11:36:45.930Z,6.50
2023-01-17T11:39:27.735Z,5.70
2023-01-17T11:41:56.584Z,5.83
2023-01-17T11:44:27.348Z,5.33
2023-01-17T11:47:10.999Z,6.10
2023-01-17T11:49:40.499Z,6.93
2023-01-17T11:52:12.109Z,5.83
2023-01-17T11:54:42.626Z,6.40
2023-01-17T11:57:22.197Z,5.40
2023-01-17T11:59:52.614Z,4.30
2023-01-17T12:03:00.936Z,5.40
2023-01-17T12:05:48.286Z,4.80
2023-01-17T12:08:30.533Z,5.03
2023-01-17T12:11:08.135Z,4.67
2023-01-17T12:14:03.425Z,4.13
2023-01-17T12:16:56.837Z,4.70
2023-01-17T12:19:48.945Z,4.80
2023-01-17T12:22:33.810Z,4.17
2023-01-17T12:25:25.771Z,4.10
2023-01-17T12:28:17.639Z,4.13
2023-01-17T12:31:07.010Z,5.13
2023-01-17T12:33:43.595Z,3.77
2023-01-17T12:36:30.839Z,3.60
2023-01-17T12:39:03.255Z,4.77
2023-01-17T12:41:40.217Z,3.13
2023-01-17T12:44:15.335Z,2.57
2023-01-17T12:46:49.536Z,2.77
2023-01-17T12:49:30.061Z,3.63
2023-01-17T12:52:06.549Z,3.10
2023-01-17T12:54:40.333Z,4.17
2023-01-17T12:57:16.554Z,2.53
2023-01-17T12:59:52.490Z,1.93
2023-01-17T13:02:31.334Z,2.63
2023-01-17T13:05:08.849Z,1.77
2023-01-17T13:07:45.606Z,2.10
2023-01-17T13:10:27.467Z,2.13
2023-01-17T13:13:02.244Z,1.70
2023-01-17T13:15:38.637Z,1.23
2023-01-17T13:18:11.964Z,1.57
2023-01-17T13:20:57.910Z,1.83
2023-01-17T13:23:32.300Z,1.67
2023-01-17T13:26:02.035Z,1.50
2023-01-17T13:28:43.469Z,1.30
2023-01-17T13:31:34.332Z,2.00
2023-01-17T13:34:16.865Z,1.23
2023-01-17T13:36:57.862Z,1.47
2023-01-17T13:39:52.488Z,1.30
2023-01-17T13:42:26.694Z,2.25
2023-01-17T13:44:57.994Z,1.70
2023-01-17T13:47:43.035Z,2.30
2023-01-17T13:50:46.980Z,1.20
2023-01-17T13:53:57.823Z,0.90
2023-01-17T13:56:37.031Z,0.93
2023-01-17T13:59:28.517Z,1.07
2023-01-17T14:01:58.804Z,1.60
2023-01-17T14:05:11.327Z,0.90
2023-01-17T14:07:47.754Z,1.03
2023-01-17T14:10:31.490Z,0.60
2023-01-17T14:13:00.913Z,0.73
2023-01-17T14:15:32.585Z,0.90
2023-01-17T14:18:03.987Z,0.80
2023-01-17T14:21:05.307Z,0.83
2023-01-17T14:24:01.312Z,1.17
2023-01-17T14:26:58.967Z,1.00
2023-01-17T14:29:48.841Z,1.73
2023-01-17T14:32:20.137Z,0.70
2023-01-17T14:34:51.768Z,1.00
2023-01-17T14:37:31.786Z,1.67
2023-01-17T14:40:02.172Z,2.40
2023-01-17T14:42:32.306Z,1.37
2023-01-17T14:45:04.176Z,1.47
2023-01-17T14:47:35.320Z,0.97
2023-01-17T14:50:20.142Z,2.03
2023-01-17T14:52:48.743Z,2.97
2023-01-17T14:55:19.469Z,2.07
2023-01-17T14:57:56.658Z,3.37
2023-01-17T15:00:29.325Z,3.30
2023-01-17T15:03:00.143Z,4.43
2023-01-17T15:05:31.382Z,4.20
2023-01-17T15:08:00.281Z,3.03
2023-01-17T15:10:32.485Z,4.20
2023-01-17T15:13:09.016Z,3.23
2023-01-17T15:15:39.978Z,4.53
2023-01-17T15:18:29.450Z,6.23
2023-01-17T15:21:03.601Z,4.63
2023-01-17T15:23:35.252Z,3.20
2023-01-17T15:26:07.520Z,4.80
2023-01-17T15:28:36.682Z,2.57
2023-01-17T15:31:10.365Z,3.70
2023-01-17T15:33:41.488Z,3.70
2023-01-17T15:36:18.150Z,3.27
2023-01-17T15:38:53.824Z,3.37
2023-01-17T15:41:24.824Z,2.87
2023-01-17T15:43:57.536Z,2.67
2023-01-17T15:46:31.600Z,3.57
2023-01-17T15:49:18.405Z,6.80
2023-01-17T15:51:56.495Z,6.73
2023-01-17T15:54:36.779Z,5.83
2023-01-17T15:57:18.113Z,5.37
2023-01-17T15:59:49.163Z,5.47
2023-01-17T16:02:42.979Z,4.77
2023-01-17T16:05:41.940Z,4.33
2023-01-17T16:08:31.646Z,4.27
2023-01-17T16:11:02.933Z,5.27
2023-01-17T16:13:32.786Z,5.40
2023-01-17T16:16:19.241Z,5.80
2023-01-17T16:18:49.167Z,6.30
2023-01-17T16:21:23.898Z,5.87
2023-01-17T16:23:54.130Z,7.43
2023-01-17T16:26:22.579Z,7.83
2023-01-17T16:28:51.629Z,9.17
2023-01-17T16:31:20.087Z,9.67
2023-01-17T16:33:51.194Z,9.90
2023-01-17T16:36:21.247Z,11.70
2023-01-17T16:38:52.491Z,10.90
2023-01-17T16:41:22.662Z,10.17
2023-01-17T16:44:02.887Z,9.90
2023-01-17T16:46:31.572Z,10.43
2023-01-17T16:49:01.664Z,10.20
2023-01-17T16:51:30.202Z,13.87
2023-01-17T16:53:58.690Z,32.00
2023-01-17T16:56:28.540Z,36.33
2023-01-17T16:58:56.923Z,26.97
2023-01-17T17:01:25.615Z,20.80
2023-01-17T17:03:54.084Z,16.40
2023-01-17T17:06:22.407Z,13.37
2023-01-17T17:08:50.823Z,13.70
2023-01-17T17:11:20.405Z,12.30
2023-01-17T17:13:51.366Z,12.33
2023-01-17T17:16:21.999Z,14.00
2023-01-17T17:18:56.794Z,13.83
2023-01-17T17:21:25.294Z,13.80
2023-01-17T17:23:56.957Z,13.93
2023-01-17T17:26:27.531Z,14.00
2023-01-17T17:28:57.482Z,14.97
2023-01-17T17:31:26.232Z,16.07
2023-01-17T17:33:58.587Z,23.07
2023-01-17T17:36:26.984Z,16.40
2023-01-17T17:38:56.680Z,25.17
2023-01-17T17:41:26.782Z,27.97
2023-01-17T17:43:57.233Z,21.97
2023-01-17T17:46:27.262Z,20.33
2023-01-17T17:48:56.120Z,18.60
2023-01-17T17:51:26.485Z,17.40
2023-01-17T17:53:55.753Z,15.93
2023-01-17T17:56:24.825Z,14.97
2023-01-17T17:58:53.791Z,14.27
2023-01-17T18:01:24.152Z,16.17
2023-01-17T18:03:52.926Z,16.70
2023-01-17T18:06:22.101Z,16.27
2023-01-17T18:08:52.201Z,17.10
2023-01-17T18:11:26.169Z,18.07
2023-01-17T18:13:56.478Z,17.57
2023-01-17T18:16:28.445Z,19.30
2023-01-17T18:18:59.437Z,19.80
2023-01-17T18:21:29.507Z,18.97
2023-01-17T18:23:59.877Z,20.97
2023-01-17T18:26:29.997Z,21.27
2023-01-17T18:29:00.130Z,23.60
2023-01-17T18:31:31.146Z,23.87
2023-01-17T18:34:01.251Z,23.03
2023-01-17T18:36:29.901Z,24.73
2023-01-17T18:38:58.799Z,26.43
2023-01-17T18:41:28.974Z,32.93
2023-01-17T18:43:57.680Z,31.47
2023-01-17T18:46:27.681Z,44.00
2023-01-17T18:48:58.559Z,39.27
2023-01-17T18:51:29.281Z,35.50
2023-01-17T18:53:58.140Z,37.67
2023-01-17T18:56:29.640Z,30.67
2023-01-17T18:58:58.404Z,37.30
2023-01-17T19:01:29.214Z,28.77
2023-01-17T19:04:00.533Z,28.90
2023-01-17T19:06:32.597Z,29.83
2023-01-17T19:09:01.644Z,28.83
2023-01-17T19:11:31.202Z,28.90
2023-01-17T19:13:59.532Z,28.83
2023-01-17T19:16:30.842Z,35.30
2023-01-17T19:19:04.874Z,35.70
2023-01-17T19:21:34.033Z,32.37
2023-01-17T19:24:05.832Z,30.93
2023-01-17T19:26:34.333Z,33.30
2023-01-17T19:29:04.421Z,31.77
2023-01-17T19:31:35.278Z,31.57
2023-01-17T19:34:05.680Z,31.20
2023-01-17T19:36:35.758Z,32.03
2023-01-17T19:39:06.702Z,30.60
2023-01-17T19:44:09.447Z,30.10
2023-01-17T19:46:38.908Z,31.47
2023-01-17T19:49:09.830Z,33.73
2023-01-17T19:51:39.536Z,32.03
2023-01-17T19:54:08.520Z,34.23
2023-01-17T19:56:38.970Z,34.50
2023-01-17T19:59:07.432Z,39.47
2023-01-17T20:01:36.434Z,38.63
2023-01-17T20:04:06.134Z,38.87
2023-01-17T20:06:37.265Z,37.50
2023-01-17T20:09:07.506Z,36.90
2023-01-17T20:11:36.172Z,39.17
2023-01-17T20:14:05.612Z,41.17
2023-01-17T20:16:36.022Z,41.27
2023-01-17T20:19:05.738Z,37.40
2023-01-17T20:21:35.465Z,37.30
2023-01-17T20:24:04.850Z,39.50
2023-01-17T20:26:37.597Z,38.67
2023-01-17T20:29:10.251Z,39.77
2023-01-17T20:31:39.543Z,37.90
2023-01-17T20:34:10.018Z,36.93
2023-01-17T20:36:41.274Z,35.20
2023-01-17T20:39:11.055Z,35.10
2023-01-17T20:41:41.205Z,33.83
2023-01-17T20:44:13.939Z,33.30
2023-01-17T20:46:43.636Z,39.27
2023-01-17T20:49:15.576Z,39.40
2023-01-17T20:51:46.220Z,40.53
2023-01-17T20:54:16.442Z,38.77
2023-01-17T20:56:47.563Z,37.80
2023-01-17T20:59:19.621Z,40.40
2023-01-17T21:01:48.471Z,43.07
2023-01-17T21:04:18.014Z,32.33
2023-01-17T21:06:46.563Z,29.77
2023-01-17T21:09:17.322Z,31.70
2023-01-17T21:11:45.740Z,31.03
2023-01-17T21:14:14.176Z,30.90
2023-01-17T21:16:44.754Z,31.47
2023-01-17T21:19:16.007Z,30.77
2023-01-17T21:21:44.441Z,31.80
2023-01-17T21:24:16.387Z,31.20
2023-01-17T21:26:46.695Z,31.10
2023-01-17T21:29:16.129Z,28.30
2023-01-17T21:31:46.145Z,29.40
2023-01-17T21:34:14.832Z,29.00
2023-01-17T21:36:44.257Z,30.30
2023-01-17T21:39:15.848Z,29.33
2023-01-17T21:41:46.750Z,28.73
2023-01-17T21:44:36.516Z,27.87
2023-01-17T21:47:07.185Z,27.43
2023-01-17T21:49:35.828Z,28.03
2023-01-17T21:52:20.635Z,27.63
2023-01-17T21:55:06.506Z,28.80
2023-01-17T21:57:52.427Z,26.83
2023-01-17T22:00:20.978Z,27.67
2023-01-17T22:02:50.747Z,27.53
2023-01-17T22:05:19.367Z,27.30
2023-01-17T22:08:01.783Z,29.40
2023-01-17T22:10:30.283Z,30.00
2023-01-17T22:12:58.645Z,28.90
2023-01-17T22:15:27.094Z,29.73
2023-01-17T22:17:57.133Z,27.17
2023-01-17T22:20:25.668Z,27.57
2023-01-17T22:22:55.918Z,29.80
2023-01-17T22:25:24.481Z,29.73
2023-01-17T22:27:52.960Z,30.53
2023-01-17T22:30:21.477Z,28.23
2023-01-17T22:32:49.907Z,28.60
2023-01-17T22:35:19.725Z,27.73
2023-01-17T22:37:48.054Z,27.40
2023-01-17T22:40:16.747Z,28.97
2023-01-17T22:42:45.123Z,27.03
2023-01-17T22:45:13.769Z,27.97
2023-01-17T22:47:42.143Z,26.33
2023-01-17T22:50:12.290Z,27.97
2023-01-17T22:52:42.352Z,26.93
2023-01-17T22:55:12.175Z,26.53
2023-01-17T22:57:40.583Z,30.30
2023-01-17T23:00:14.616Z,26.97
2023-01-17T23:02:44.323Z,26.40
2023-01-17T23:05:12.833Z,26.07
2023-01-17T23:07:45.283Z,25.57
2023-01-17T23:10:34.925Z,25.87
2023-01-17T23:13:03.287Z,33.60
2023-01-17T23:15:49.078Z,37.00
2023-01-17T23:18:35.032Z,32.07
2023-01-17T23:21:04.175Z,28.60
2023-01-17T23:23:34.699Z,28.40
2023-01-17T23:26:03.106Z,28.97
2023-01-17T23:28:30.441Z,28.80
2023-01-17T23:31:05.850Z,28.57
2023-01-17T23:33:34.250Z,28.73
2023-01-17T23:36:03.481Z,30.57
2023-01-17T23:38:34.005Z,29.70
2023-01-17T23:41:24.284Z,31.93
2023-01-17T23:43:53.635Z,31.33
2023-01-17T23:46:22.827Z,28.83
2023-01-17T23:48:51.258Z,32.63
2023-01-17T23:51:19.709Z,29.27
2023-01-17T23:53:48.122Z,27.60
2023-01-17T23:56:20.698Z,29.83
2023-01-17T23:58:49.099Z,31.60
